Time;durP1;ratioP1;P1;durP2;ratioP2;P2;SDS_P1;SDS_P2;PMS_P1;PMS_P2;Temp;Humidity;BMP_temperature;BMP_pressure;BME280_temperature;BME280_humidity;BME280_pressure;Samples;Min_cycle;Max_cycle;Signal;HPM_P1;HPM_P2
2023/07/08 00:00:27;;;;;;;3.65;2.78;;;;;26.50;101642.00;;;;4998862;28;20201;-75
2023/07/08 00:02:54;;;;;;;4.15;2.80;;;;;26.50;101640.00;;;;5004985;28;20232;-76
2023/07/08 00:05:24;;;;;;;4.32;2.70;;;;;26.40;101638.00;;;;5007119;28;20205;-77
2023/07/08 00:07:53;;;;;;;4.72;2.40;;;;;26.40;101628.00;;;;5008090;28;20205;-76
2023/07/08 00:10:24;;;;;;;2.20;2.00;;;;;26.30;101622.00;;;;4980699;28;20194;-76
2023/07/08 00:12:53;;;;;;;2.83;2.35;;;;;26.30;101618.00;;;;4986347;28;20201;-76
2023/07/08 00:15:23;;;;;;;3.42;2.17;;;;;26.30;101612.00;;;;4970801;28;20595;-76
2023/07/08 00:17:50;;;;;;;3.33;2.58;;;;;26.30;101609.00;;;;4979952;28;20206;-76
2023/07/08 00:20:21;;;;;;;4.55;2.75;;;;;26.30;101604.00;;;;4977017;28;20202;-76
2023/07/08 00:22:50;;;;;;;2.83;2.33;;;;;26.30;101601.00;;;;4987103;28;20225;-76
2023/07/08 00:25:19;;;;;;;2.58;2.33;;;;;26.20;101599.00;;;;4985432;28;20710;-76
2023/07/08 00:27:47;;;;;;;2.58;2.13;;;;;26.20;101599.00;;;;4986478;28;20245;-76
2023/07/08 00:30:24;;;;;;;3.92;2.50;;;;;26.10;101601.00;;;;4982443;28;20233;-76
2023/07/08 00:32:53;;;;;;;3.85;2.30;;;;;26.10;101605.00;;;;4973285;28;20206;-76
2023/07/08 00:35:23;;;;;;;2.63;2.42;;;;;26.10;101606.00;;;;4986239;28;20553;-77
2023/07/08 00:37:53;;;;;;;3.55;2.53;;;;;26.10;101598.00;;;;4987514;28;20225;-77
2023/07/08 00:40:24;;;;;;;3.35;2.45;;;;;26.00;101592.00;;;;4986454;28;20194;-76
2023/07/08 00:42:54;;;;;;;3.70;2.50;;;;;26.00;101595.00;;;;4987923;28;20225;-76
2023/07/08 00:45:33;;;;;;;5.40;2.60;;;;;25.90;101588.00;;;;4987800;28;20198;-76
2023/07/08 00:48:09;;;;;;;3.40;2.63;;;;;25.90;101581.00;;;;4983221;28;20197;-76
2023/07/08 00:50:37;;;;;;;2.75;2.05;;;;;26.00;101587.00;;;;4986278;28;20204;-76
2023/07/08 00:53:23;;;;;;;3.05;2.15;;;;;25.80;101582.00;;;;4986403;28;20205;-76
2023/07/08 00:55:54;;;;;;;3.15;2.13;;;;;25.90;101574.00;;;;4986291;28;20265;-76
2023/07/08 00:58:24;;;;;;;3.95;2.60;;;;;25.90;101580.00;;;;4987145;28;20866;-76
2023/07/08 01:00:54;;;;;;;2.50;2.15;;;;;25.90;101583.00;;;;4982234;28;20213;-76
2023/07/08 01:03:24;;;;;;;3.58;2.50;;;;;25.80;101586.00;;;;4983000;28;20836;-76
2023/07/08 01:05:52;;;;;;;2.72;2.53;;;;;25.80;101591.00;;;;4978128;28;20206;-76
2023/07/08 01:08:28;;;;;;;2.58;2.30;;;;;25.80;101582.00;;;;4990057;28;20217;-76
2023/07/08 01:11:02;;;;;;;2.95;2.42;;;;;25.70;101583.00;;;;5005723;28;20200;-76
2023/07/08 01:13:33;;;;;;;3.25;2.35;;;;;25.80;101577.00;;;;5005183;28;20296;-76
2023/07/08 01:16:00;;;;;;;3.00;2.00;;;;;25.70;101572.00;;;;5005797;28;20200;-76
2023/07/08 01:18:29;;;;;;;4.15;2.13;;;;;25.70;101568.00;;;;5001929;28;20237;-75
2023/07/08 01:20:56;;;;;;;2.17;1.95;;;;;25.70;101570.00;;;;5001335;28;20547;-76
2023/07/08 01:23:25;;;;;;;3.10;2.30;;;;;25.70;101568.00;;;;5005818;28;20713;-76
2023/07/08 01:25:53;;;;;;;2.30;2.08;;;;;25.70;101574.00;;;;5007873;28;20220;-76
2023/07/08 01:28:21;;;;;;;5.20;2.38;;;;;25.60;101570.00;;;;5002800;28;20537;-76
2023/07/08 01:30:50;;;;;;;3.90;2.00;;;;;25.60;101570.00;;;;5005095;28;20202;-76
2023/07/08 01:33:21;;;;;;;4.03;2.25;;;;;25.60;101572.00;;;;5004894;28;20197;-76
2023/07/08 01:35:49;;;;;;;5.80;2.30;;;;;25.60;101564.00;;;;5011234;28;20283;-76
2023/07/08 01:38:19;;;;;;;5.60;2.42;;;;;25.50;101564.00;;;;4996878;28;20201;-76
2023/07/08 01:40:53;;;;;;;3.13;2.13;;;;;25.50;101561.00;;;;5001356;28;20200;-76
2023/07/08 01:43:21;;;;;;;3.55;2.30;;;;;25.50;101553.00;;;;5006824;28;20248;-76
2023/07/08 01:45:50;;;;;;;3.03;2.28;;;;;25.50;101563.00;;;;5011043;28;20671;-76
2023/07/08 01:48:19;;;;;;;3.53;2.13;;;;;25.40;101556.00;;;;5010022;28;20201;-76
2023/07/08 01:50:52;;;;;;;2.38;2.17;;;;;25.40;101564.00;;;;5011560;28;20235;-76
2023/07/08 01:53:22;;;;;;;2.95;2.08;;;;;25.40;101553.00;;;;5005727;28;20190;-76
2023/07/08 01:55:51;;;;;;;3.92;2.35;;;;;25.40;101560.00;;;;5007919;28;20197;-76
2023/07/08 01:58:18;;;;;;;2.15;1.90;;;;;25.40;101554.00;;;;5007202;28;20203;-76
2023/07/08 02:00:48;;;;;;;2.53;2.22;;;;;25.40;101548.00;;;;5010484;28;20208;-76
2023/07/08 02:03:15;;;;;;;4.75;2.10;;;;;25.30;101549.00;;;;5007992;28;20327;-76
2023/07/08 02:05:43;;;;;;;2.80;2.30;;;;;25.30;101553.00;;;;5008177;28;20208;-76
2023/07/08 02:08:10;;;;;;;2.72;2.20;;;;;25.30;101548.00;;;;5008068;28;20223;-77
2023/07/08 02:10:39;;;;;;;3.40;2.33;;;;;25.30;101544.00;;;;5009466;28;20212;-76
2023/07/08 02:13:08;;;;;;;2.15;1.85;;;;;25.30;101539.00;;;;5009135;28;20208;-76
2023/07/08 02:15:35;;;;;;;3.80;1.98;;;;;25.30;101535.00;;;;5010071;28;20710;-76
2023/07/08 02:18:03;;;;;;;2.28;2.00;;;;;25.20;101529.00;;;;5008431;28;20705;-77
2023/07/08 02:20:30;;;;;;;3.13;2.25;;;;;25.20;101524.00;;;;5010092;28;20205;-76
2023/07/08 02:22:57;;;;;;;2.53;2.00;;;;;25.20;101530.00;;;;5007059;28;20221;-76
2023/07/08 02:25:25;;;;;;;2.45;2.15;;;;;25.20;101525.00;;;;5010747;28;20201;-75
2023/07/08 02:27:54;;;;;;;3.20;2.25;;;;;25.20;101521.00;;;;5009754;28;20201;-77
2023/07/08 02:30:23;;;;;;;2.50;2.30;;;;;25.10;101525.00;;;;5001256;28;20291;-76
2023/07/08 02:32:56;;;;;;;2.33;1.98;;;;;25.10;101521.00;;;;5007799;28;20228;-76
2023/07/08 02:35:25;;;;;;;2.78;2.08;;;;;25.10;101519.00;;;;4995690;28;20212;-77
2023/07/08 02:37:52;;;;;;;3.28;2.25;;;;;25.10;101510.00;;;;5008324;28;20212;-76
2023/07/08 02:40:20;;;;;;;2.80;2.25;;;;;25.10;101507.00;;;;5008592;28;20248;-76
2023/07/08 02:42:48;;;;;;;2.65;2.10;;;;;25.10;101509.00;;;;5008901;28;20695;-76
2023/07/08 02:45:16;;;;;;;3.22;2.40;;;;;25.10;101508.00;;;;5007413;28;20208;-76
2023/07/08 02:47:45;;;;;;;3.03;2.40;;;;;25.10;101501.00;;;;5004402;28;20205;-76
2023/07/08 02:50:13;;;;;;;5.97;1.80;;;;;25.10;101499.00;;;;4998165;28;20208;-77
2023/07/08 02:52:40;;;;;;;3.20;2.58;;;;;25.10;101499.00;;;;5005784;28;20212;-76
2023/07/08 02:55:09;;;;;;;2.63;2.15;;;;;25.00;101498.00;;;;5007584;28;20678;-77
2023/07/08 02:57:36;;;;;;;3.15;2.00;;;;;25.00;101506.00;;;;5008694;28;20206;-76
2023/07/08 03:00:06;;;;;;;3.00;2.28;;;;;25.00;101508.00;;;;5008534;28;20200;-76
2023/07/08 03:02:33;;;;;;;4.55;2.20;;;;;25.00;101498.00;;;;5002059;28;20221;-75
2023/07/08 03:05:05;;;;;;;2.47;2.28;;;;;25.00;101497.00;;;;5000980;28;20212;-76
2023/07/08 03:07:32;;;;;;;2.60;1.98;;;;;25.00;101501.00;;;;5008065;28;20237;-76
2023/07/08 03:09:59;;;;;;;3.70;2.28;;;;;25.00;101498.00;;;;5006384;28;20233;-77
2023/07/08 03:12:26;;;;;;;2.10;1.73;;;;;25.00;101494.00;;;;4999620;28;20663;-76
2023/07/08 03:14:54;;;;;;;2.10;1.77;;;;;24.90;101499.00;;;;5006944;28;20308;-76
2023/07/08 03:17:21;;;;;;;3.15;1.85;;;;;24.90;101496.00;;;;4992555;28;20200;-75
2023/07/08 03:19:49;;;;;;;2.40;2.03;;;;;24.90;101501.00;;;;4999012;28;20201;-76
2023/07/08 03:22:17;;;;;;;2.90;2.25;;;;;24.90;101500.00;;;;5006482;28;20200;-76
2023/07/08 03:24:46;;;;;;;4.13;2.35;;;;;24.90;101505.00;;;;5010461;28;20211;-76
2023/07/08 03:27:14;;;;;;;3.33;2.50;;;;;24.90;101503.00;;;;5008103;28;20267;-76
2023/07/08 03:29:42;;;;;;;2.13;1.90;;;;;24.90;101504.00;;;;5007621;28;20197;-76
2023/07/08 03:32:12;;;;;;;2.13;1.92;;;;;24.90;101506.00;;;;5000118;28;20956;-76
2023/07/08 03:34:39;;;;;;;5.38;2.53;;;;;24.90;101507.00;;;;5008965;28;20686;-76
2023/07/08 03:37:07;;;;;;;2.60;2.20;;;;;24.90;101502.00;;;;5003556;28;20225;-75
2023/07/08 03:39:36;;;;;;;2.97;1.90;;;;;24.90;101503.00;;;;5005864;28;20197;-76
2023/07/08 03:42:04;;;;;;;3.40;1.73;;;;;24.90;101502.00;;;;5007091;28;20197;-76
2023/07/08 03:44:31;;;;;;;2.60;2.00;;;;;24.90;101510.00;;;;5009877;28;20302;-77
2023/07/08 03:46:59;;;;;;;2.85;2.00;;;;;24.90;101511.00;;;;5021424;28;20391;-76
2023/07/08 03:49:26;;;;;;;2.47;2.22;;;;;24.80;101516.00;;;;5007311;28;20201;-77
2023/07/08 03:51:54;;;;;;;2.63;2.20;;;;;24.80;101512.00;;;;5005443;28;20196;-77
2023/07/08 03:54:24;;;;;;;2.88;2.00;;;;;24.80;101508.00;;;;5014163;28;20197;-76
2023/07/08 03:56:54;;;;;;;2.13;1.90;;;;;24.80;101510.00;;;;5018067;28;20193;-76
2023/07/08 03:59:21;;;;;;;2.90;2.47;;;;;24.80;101506.00;;;;5002122;28;20753;-77
2023/07/08 04:01:48;;;;;;;2.78;1.95;;;;;24.80;101508.00;;;;5007818;28;20198;-76
2023/07/08 04:04:16;;;;;;;3.85;2.10;;;;;24.80;101516.00;;;;5006429;28;21017;-75
2023/07/08 04:06:45;;;;;;;2.58;2.00;;;;;24.80;101518.00;;;;5005298;28;20951;-75
2023/07/08 04:09:12;;;;;;;2.30;2.10;;;;;24.80;101519.00;;;;5005407;28;20236;-76
2023/07/08 04:11:39;;;;;;;2.35;2.15;;;;;24.80;101512.00;;;;4995566;28;20694;-77
2023/07/08 04:14:10;;;;;;;2.75;2.20;;;;;24.80;101508.00;;;;4993263;28;20584;-77
2023/07/08 04:16:47;;;;;;;4.15;2.08;;;;;24.70;101512.00;;;;5006573;28;20606;-75
2023/07/08 04:19:15;;;;;;;2.45;2.20;;;;;24.80;101509.00;;;;5005842;28;20200;-75
2023/07/08 04:21:43;;;;;;;2.22;1.83;;;;;24.80;101509.00;;;;4992557;28;20197;-76
2023/07/08 04:24:12;;;;;;;3.35;2.38;;;;;24.80;101510.00;;;;5005297;28;20220;-76
2023/07/08 04:26:40;;;;;;;3.05;2.13;;;;;24.80;101510.00;;;;5005196;28;20670;-77
2023/07/08 04:29:14;;;;;;;3.15;2.15;;;;;24.80;101511.00;;;;4999411;28;20220;-77
2023/07/08 04:31:42;;;;;;;2.65;2.10;;;;;24.80;101513.00;;;;5008451;28;20204;-77
2023/07/08 04:34:10;;;;;;;3.50;2.30;;;;;24.80;101515.00;;;;5007290;28;20205;-77
2023/07/08 04:36:38;;;;;;;4.05;2.35;;;;;24.80;101516.00;;;;5006929;28;20670;-76
2023/07/08 04:39:08;;;;;;;2.65;2.20;;;;;24.80;101517.00;;;;5003733;28;20213;-76
2023/07/08 04:41:40;;;;;;;2.33;1.92;;;;;24.90;101526.00;;;;5007963;28;20216;-76
2023/07/08 04:44:10;;;;;;;2.97;2.08;;;;;24.90;101514.00;;;;5003764;28;20307;-76
2023/07/08 04:46:40;;;;;;;2.78;1.92;;;;;24.90;101515.00;;;;5005744;28;20292;-76
2023/07/08 04:49:10;;;;;;;2.55;2.05;;;;;24.90;101516.00;;;;5004990;28;20201;-76
2023/07/08 04:51:38;;;;;;;4.15;2.45;;;;;24.90;101514.00;;;;4994834;28;20201;-76
2023/07/08 04:54:06;;;;;;;2.15;1.92;;;;;24.90;101514.00;;;;5000187;28;20197;-79
2023/07/08 04:56:39;;;;;;;2.03;1.83;;;;;24.90;101510.00;;;;4998060;28;20221;-77
2023/07/08 04:59:09;;;;;;;3.38;2.25;;;;;25.00;101509.00;;;;5000741;28;20197;-76
2023/07/08 05:01:37;;;;;;;3.70;1.92;;;;;25.00;101513.00;;;;4996863;28;20209;-76
2023/07/08 05:04:06;;;;;;;2.35;2.03;;;;;25.00;101515.00;;;;4995724;28;20241;-76
2023/07/08 05:06:34;;;;;;;2.78;2.13;;;;;25.00;101514.00;;;;5000241;28;20190;-76
2023/07/08 05:09:02;;;;;;;3.53;2.25;;;;;25.10;101506.00;;;;4995957;28;20317;-77
2023/07/08 05:11:29;;;;;;;4.45;2.20;;;;;25.10;101506.00;;;;4995821;28;20231;-77
2023/07/08 05:13:57;;;;;;;2.10;1.90;;;;;25.10;101507.00;;;;4999905;28;20236;-77
2023/07/08 05:16:26;;;;;;;3.60;2.03;;;;;25.20;101505.00;;;;5000776;28;20208;-76
2023/07/08 05:18:53;;;;;;;2.53;1.88;;;;;25.20;101512.00;;;;5001813;28;20200;-78
2023/07/08 05:21:21;;;;;;;3.00;2.30;;;;;25.30;101503.00;;;;5002365;28;20216;-78
2023/07/08 05:23:50;;;;;;;3.45;2.10;;;;;25.30;101512.00;;;;5003569;28;20229;-76
2023/07/08 05:26:18;;;;;;;4.47;2.40;;;;;25.30;101508.00;;;;5006299;28;20208;-76
2023/07/08 05:28:45;;;;;;;2.08;1.65;;;;;25.40;101511.00;;;;5002581;28;20212;-77
2023/07/08 05:31:12;;;;;;;2.05;1.83;;;;;25.40;101515.00;;;;5002968;28;20456;-77
2023/07/08 05:33:41;;;;;;;2.67;2.22;;;;;25.50;101508.00;;;;5002087;28;20293;-76
2023/07/08 05:36:09;;;;;;;3.90;2.20;;;;;25.50;101507.00;;;;5003411;28;20197;-78
2023/07/08 05:38:36;;;;;;;2.42;2.10;;;;;25.60;101505.00;;;;5005667;28;20200;-77
2023/07/08 05:41:03;;;;;;;3.08;2.05;;;;;25.60;101504.00;;;;5000891;28;20208;-75
2023/07/08 05:43:30;;;;;;;2.17;1.98;;;;;25.70;101508.00;;;;5001782;28;20221;-76
2023/07/08 05:46:02;;;;;;;2.50;1.98;;;;;25.70;101506.00;;;;5002018;28;20197;-76
2023/07/08 05:48:29;;;;;;;2.20;1.90;;;;;25.80;101505.00;;;;4999766;28;20209;-76
2023/07/08 05:50:58;;;;;;;2.95;1.70;;;;;25.80;101500.00;;;;5004895;28;20671;-77
2023/07/08 05:53:25;;;;;;;1.90;1.70;;;;;25.90;101501.00;;;;5005755;28;20582;-76
2023/07/08 05:55:53;;;;;;;3.70;2.20;;;;;25.90;101500.00;;;;5000504;28;20198;-77
2023/07/08 05:58:20;;;;;;;1.98;1.73;;;;;26.00;101506.00;;;;5003116;28;20219;-76
2023/07/08 06:00:48;;;;;;;2.70;2.03;;;;;26.10;101508.00;;;;4999041;28;20231;-76
2023/07/08 06:03:15;;;;;;;2.80;1.70;;;;;26.10;101507.00;;;;5002355;28;20208;-77
2023/07/08 06:05:43;;;;;;;2.75;1.83;;;;;26.20;101508.00;;;;5000143;28;20202;-76
2023/07/08 06:08:12;;;;;;;2.80;1.70;;;;;26.20;101508.00;;;;4999090;28;20225;-76
2023/07/08 06:10:44;;;;;;;2.63;2.05;;;;;26.30;101508.00;;;;4999003;28;20204;-77
2023/07/08 06:13:11;;;;;;;2.70;1.77;;;;;26.40;101508.00;;;;5000389;28;20209;-77
2023/07/08 06:15:39;;;;;;;3.30;2.28;;;;;26.40;101508.00;;;;4998104;28;20221;-76
2023/07/08 06:18:06;;;;;;;5.55;1.80;;;;;26.50;101512.00;;;;4998252;28;20224;-76
2023/07/08 06:20:34;;;;;;;2.03;1.83;;;;;26.60;101518.00;;;;5000933;28;20194;-78
2023/07/08 06:23:01;;;;;;;1.67;1.58;;;;;26.70;101526.00;;;;5008096;28;20203;-76
2023/07/08 06:25:30;;;;;;;1.77;1.65;;;;;26.70;101524.00;;;;5010147;28;20236;-78
2023/07/08 06:27:57;;;;;;;2.40;1.92;;;;;26.80;101523.00;;;;5006502;28;20260;-75
2023/07/08 06:30:25;;;;;;;3.55;1.77;;;;;26.90;101518.00;;;;5010246;28;20209;-75
2023/07/08 06:32:52;;;;;;;3.17;2.13;;;;;27.00;101524.00;;;;5010182;28;20212;-75
2023/07/08 06:35:19;;;;;;;3.55;1.85;;;;;27.00;101519.00;;;;5005398;28;20201;-76
2023/07/08 06:37:47;;;;;;;3.25;1.98;;;;;27.10;101525.00;;;;5007646;28;20204;-77
2023/07/08 06:40:14;;;;;;;3.05;1.67;;;;;27.20;101527.00;;;;5005631;28;20226;-77
2023/07/08 06:42:43;;;;;;;2.78;2.30;;;;;27.30;101530.00;;;;5009511;28;20205;-75
2023/07/08 06:45:11;;;;;;;2.67;1.92;;;;;27.30;101537.00;;;;5007107;28;20213;-77
2023/07/08 06:47:38;;;;;;;1.67;1.58;;;;;27.40;101532.00;;;;5002472;28;20212;-77
2023/07/08 06:50:07;;;;;;;1.67;1.52;;;;;27.50;101528.00;;;;5000894;28;20202;-77
2023/07/08 06:52:36;;;;;;;2.20;2.00;;;;;27.60;101525.00;;;;5007670;28;20580;-78
2023/07/08 06:55:05;;;;;;;2.25;1.88;;;;;27.70;101516.00;;;;5004532;28;20193;-78
2023/07/08 06:57:33;;;;;;;2.53;1.95;;;;;27.80;101519.00;;;;5006614;28;20216;-77
2023/07/08 07:00:02;;;;;;;3.00;1.48;;;;;27.90;101516.00;;;;5006940;28;20209;-77
2023/07/08 07:02:30;;;;;;;2.50;2.30;;;;;28.00;101519.00;;;;5005063;28;20216;-77
2023/07/08 07:04:57;;;;;;;2.25;1.75;;;;;28.10;101522.00;;;;5001012;28;20229;-77
2023/07/08 07:07:25;;;;;;;6.13;2.30;;;;;28.20;101515.00;;;;5000378;28;20189;-77
2023/07/08 07:09:52;;;;;;;2.78;2.20;;;;;28.30;101525.00;;;;5007730;28;20232;-77
2023/07/08 07:12:19;;;;;;;3.05;2.30;;;;;28.40;101522.00;;;;5004787;28;20579;-78
2023/07/08 07:14:47;;;;;;;5.47;2.28;;;;;28.50;101519.00;;;;5005515;28;20216;-77
2023/07/08 07:17:15;;;;;;;2.83;2.03;;;;;28.60;101517.00;;;;5003940;28;20571;-77
2023/07/08 07:19:43;;;;;;;2.67;1.90;;;;;28.70;101521.00;;;;5005675;28;20221;-77
2023/07/08 07:22:10;;;;;;;7.28;3.05;;;;;28.70;101516.00;;;;5000541;28;20209;-77
2023/07/08 07:24:37;;;;;;;3.05;2.03;;;;;28.90;101515.00;;;;5000210;28;20231;-78
2023/07/08 07:27:05;;;;;;;3.42;2.58;;;;;28.90;101520.00;;;;5000921;28;20205;-78
2023/07/08 07:29:42;;;;;;;2.75;1.90;;;;;29.00;101512.00;;;;5004786;28;20209;-77
2023/07/08 07:32:10;;;;;;;6.53;2.35;;;;;29.20;101509.00;;;;5008061;28;20706;-79
2023/07/08 07:34:39;;;;;;;3.60;1.90;;;;;29.20;101516.00;;;;5003177;28;20193;-78
2023/07/08 07:37:07;;;;;;;3.90;1.90;;;;;29.40;101512.00;;;;5000653;28;20212;-77
2023/07/08 07:39:34;;;;;;;2.08;1.70;;;;;29.50;101521.00;;;;5007016;28;20207;-77
2023/07/08 07:42:02;;;;;;;3.15;2.17;;;;;29.60;101524.00;;;;5007650;28;20200;-77
2023/07/08 07:44:29;;;;;;;2.20;1.98;;;;;29.70;101519.00;;;;5007705;28;20225;-77
2023/07/08 07:46:57;;;;;;;2.40;1.90;;;;;29.80;101517.00;;;;5008682;28;20193;-79
2023/07/08 07:49:24;;;;;;;2.97;2.47;;;;;29.90;101509.00;;;;5005799;28;20197;-78
2023/07/08 07:51:52;;;;;;;2.42;2.10;;;;;30.00;101508.00;;;;5002287;28;20224;-76
2023/07/08 07:54:20;;;;;;;3.33;2.20;;;;;30.10;101506.00;;;;5005523;28;20201;-79
2023/07/08 07:56:48;;;;;;;11.88;2.30;;;;;30.20;101508.00;;;;5012668;28;20283;-81
2023/07/08 07:59:15;;;;;;;2.40;2.20;;;;;30.30;101506.00;;;;5015031;28;20209;-80
2023/07/08 08:01:43;;;;;;;2.40;2.03;;;;;30.40;101500.00;;;;5008614;28;20212;-80
2023/07/08 08:04:11;;;;;;;3.13;2.25;;;;;30.50;101497.00;;;;5005656;28;20224;-78
2023/07/08 08:06:39;;;;;;;3.05;2.55;;;;;30.60;101501.00;;;;5006928;28;20207;-78
2023/07/08 08:09:08;;;;;;;3.83;2.60;;;;;30.70;101498.00;;;;5003862;28;20227;-78
2023/07/08 08:11:35;;;;;;;3.20;2.30;;;;;30.90;101497.00;;;;5006681;28;20679;-78
2023/07/08 08:14:04;;;;;;;3.63;2.67;;;;;31.00;101500.00;;;;5008033;28;20581;-78
2023/07/08 08:16:31;;;;;;;3.95;2.47;;;;;31.10;101504.00;;;;5005009;28;20201;-79
2023/07/08 08:18:59;;;;;;;3.25;2.70;;;;;31.30;101511.00;;;;5003984;28;20663;-79
2023/07/08 08:21:26;;;;;;;4.95;2.72;;;;;31.40;101512.00;;;;5001263;28;20209;-79
2023/07/08 08:23:53;;;;;;;4.60;3.03;;;;;31.50;101509.00;;;;5009741;28;20713;-79
2023/07/08 08:26:22;;;;;;;3.60;2.15;;;;;31.60;101517.00;;;;5001887;28;20204;-79
2023/07/08 08:28:49;;;;;;;3.95;2.83;;;;;31.70;101509.00;;;;5007650;28;20193;-79
2023/07/08 08:31:16;;;;;;;7.70;2.55;;;;;31.80;101509.00;;;;5006290;28;20216;-79
2023/07/08 08:33:44;;;;;;;3.85;2.78;;;;;32.00;101511.00;;;;5008908;28;20200;-81
2023/07/08 08:36:11;;;;;;;4.47;2.70;;;;;32.00;101524.00;;;;5007330;28;20662;-80
2023/07/08 08:38:39;;;;;;;2.92;2.65;;;;;32.20;101526.00;;;;5006883;28;20662;-83
2023/07/08 08:41:13;;;;;;;3.45;2.70;;;;;32.20;101535.00;;;;5000632;28;20212;-81
2023/07/08 08:43:43;;;;;;;3.67;2.88;;;;;32.30;101529.00;;;;5006390;28;20199;-79
2023/07/08 08:46:16;;;;;;;4.05;2.53;;;;;32.50;101537.00;;;;5007435;28;20724;-79
2023/07/08 08:48:49;;;;;;;4.20;3.10;;;;;32.60;101538.00;;;;5007339;28;20764;-79
2023/07/08 08:51:17;;;;;;;6.25;2.80;;;;;32.70;101543.00;;;;5011281;28;20196;-79
2023/07/08 08:53:45;;;;;;;3.75;2.78;;;;;32.80;101544.00;;;;5012229;28;20217;-79
2023/07/08 08:56:20;;;;;;;3.13;2.63;;;;;32.80;101542.00;;;;5010224;28;20585;-79
2023/07/08 08:58:57;;;;;;;3.15;2.58;;;;;32.90;101549.00;;;;5009687;28;20200;-78
2023/07/08 09:01:24;;;;;;;2.85;2.33;;;;;33.00;101552.00;;;;5009691;28;20204;-79
2023/07/08 09:03:57;;;;;;;10.20;2.75;;;;;33.10;101549.00;;;;5011779;28;20219;-79
2023/07/08 09:06:27;;;;;;;3.28;2.80;;;;;33.10;101543.00;;;;5009620;28;20235;-79
2023/07/08 09:08:57;;;;;;;4.95;2.78;;;;;33.30;101539.00;;;;5010086;28;20282;-79
2023/07/08 09:11:36;;;;;;;3.92;2.85;;;;;33.30;101534.00;;;;5011486;28;20192;-79
2023/07/08 09:14:13;;;;;;;2.90;2.53;;;;;33.50;101539.00;;;;5007772;28;20227;-80
2023/07/08 09:16:47;;;;;;;4.60;3.15;;;;;33.50;101535.00;;;;4994469;28;20201;-81
2023/07/08 09:19:18;;;;;;;4.32;3.30;;;;;33.70;101534.00;;;;4991671;28;20460;-80
2023/07/08 09:21:50;;;;;;;4.43;3.08;;;;;33.70;101529.00;;;;5004084;28;20208;-79
2023/07/08 09:24:22;;;;;;;3.53;2.88;;;;;33.80;101530.00;;;;5005764;28;20251;-79
2023/07/08 09:26:52;;;;;;;6.90;3.40;;;;;33.90;101534.00;;;;5007575;28;20212;-78
2023/07/08 09:29:23;;;;;;;5.47;3.55;;;;;34.00;101534.00;;;;5005814;28;20305;-79
2023/07/08 09:31:51;;;;;;;3.30;2.55;;;;;34.10;101540.00;;;;5006007;28;20197;-80
2023/07/08 09:34:23;;;;;;;3.78;2.97;;;;;34.20;101547.00;;;;5000172;28;20230;-80
2023/07/08 09:36:52;;;;;;;4.57;2.95;;;;;34.30;101545.00;;;;4998850;28;20264;-80
2023/07/08 09:39:21;;;;;;;3.22;2.83;;;;;34.40;101542.00;;;;4998333;28;20199;-79
2023/07/08 09:41:50;;;;;;;3.60;3.20;;;;;34.40;101540.00;;;;4996287;28;20275;-81
2023/07/08 09:44:25;;;;;;;4.70;2.47;;;;;34.40;101539.00;;;;5004363;28;20208;-81
2023/07/08 09:46:53;;;;;;;3.33;2.90;;;;;34.50;101542.00;;;;5005985;28;20193;-84
2023/07/08 09:49:24;;;;;;;4.07;3.00;;;;;34.60;101543.00;;;;5009638;28;20646;-81
2023/07/08 09:51:53;;;;;;;3.72;2.92;;;;;34.70;101554.00;;;;5005799;28;20205;-81
2023/07/08 09:54:22;;;;;;;3.92;3.08;;;;;34.70;101553.00;;;;5006363;28;20565;-82
2023/07/08 09:57:02;;;;;;;3.47;3.03;;;;;34.70;101555.00;;;;5008636;28;20196;-81
2023/07/08 09:59:39;;;;;;;3.92;3.00;;;;;34.80;101557.00;;;;5008012;28;20200;-81
2023/07/08 10:02:28;;;;;;;3.35;2.85;;;;;34.80;101562.00;;;;5007300;28;20192;-82
2023/07/08 10:04:58;;;;;;;3.30;3.00;;;;;35.00;101556.00;;;;5008869;28;20231;-81
2023/07/08 10:07:28;;;;;;;4.85;3.50;;;;;35.00;101553.00;;;;5006943;28;20588;-81
2023/07/08 10:09:58;;;;;;;5.22;3.28;;;;;35.10;101553.00;;;;4990899;28;20232;-83
2023/07/08 10:12:26;;;;;;;4.80;2.97;;;;;35.20;101552.00;;;;5009738;28;20201;-82
2023/07/08 10:15:00;;;;;;;4.47;3.33;;;;;35.20;101550.00;;;;5007646;28;20647;-81
2023/07/08 10:17:29;;;;;;;5.13;3.03;;;;;35.30;101550.00;;;;5010103;28;20950;-81
2023/07/08 10:19:57;;;;;;;4.30;3.10;;;;;35.40;101544.00;;;;5007790;28;20197;-81
2023/07/08 10:22:34;;;;;;;11.30;3.45;;;;;35.50;101545.00;;;;5007134;28;20667;-82
2023/07/08 10:25:17;;;;;;;4.10;3.33;;;;;35.50;101546.00;;;;5006938;28;20709;-82
2023/07/08 10:27:52;;;;;;;3.65;3.35;;;;;35.50;101546.00;;;;5008236;28;20196;-82
2023/07/08 10:30:24;;;;;;;4.20;3.60;;;;;35.60;101552.00;;;;5007758;28;20220;-86
2023/07/08 10:33:13;;;;;;;3.55;3.10;;;;;35.60;101550.00;;;;5008000;28;20287;-85
2023/07/08 10:35:46;;;;;;;4.32;3.30;;;;;35.80;101551.00;;;;5006407;28;20197;-86
2023/07/08 10:38:35;;;;;;;3.55;3.08;;;;;35.70;101550.00;;;;5001174;28;20224;-83
2023/07/08 10:41:12;;;;;;;4.10;3.50;;;;;35.80;101546.00;;;;5001317;28;20205;-84
2023/07/08 10:43:54;;;;;;;4.95;3.15;;;;;35.80;101544.00;;;;5004896;28;20200;-84
2023/07/08 10:46:33;;;;;;;3.63;3.10;;;;;35.90;101541.00;;;;5008632;28;20231;-87
2023/07/08 10:49:33;;;;;;;4.10;3.47;;;;;35.90;101543.00;;;;5006028;28;20212;-83
2023/07/08 10:52:27;;;;;;;6.05;3.05;;;;;35.90;101534.00;;;;5007608;28;20200;-83
2023/07/08 10:55:11;;;;;;;4.20;3.75;;;;;36.00;101526.00;;;;5007360;28;20212;-84
2023/07/08 10:57:58;;;;;;;7.35;3.20;;;;;36.10;101528.00;;;;5008138;28;20200;-84
2023/07/08 11:00:33;;;;;;;4.80;3.40;;;;;36.20;101536.00;;;;5008005;28;20207;-85
2023/07/08 11:03:42;;;;;;;6.32;3.50;;;;;36.20;101535.00;;;;5009469;28;20191;-85
2023/07/08 11:06:15;;;;;;;5.25;4.07;;;;;36.30;101534.00;;;;4981577;28;20216;-85
2023/07/08 11:08:46;;;;;;;5.93;4.35;;;;;36.30;101535.00;;;;4989618;28;20234;-84
2023/07/08 11:11:28;;;;;;;5.45;3.83;;;;;36.30;101528.00;;;;5004595;28;20215;-84
2023/07/08 11:14:04;;;;;;;6.97;3.90;;;;;36.40;101527.00;;;;5006110;28;20212;-84
2023/07/08 11:16:34;;;;;;;7.70;4.28;;;;;36.40;101520.00;;;;4989621;28;20215;-83
2023/07/08 11:19:07;;;;;;;5.05;3.88;;;;;36.40;101523.00;;;;4996886;28;20192;-84
2023/07/08 11:21:41;;;;;;;5.63;4.35;;;;;36.50;101526.00;;;;5008135;28;20212;-83
2023/07/08 11:24:17;;;;;;;5.22;3.70;;;;;36.50;101528.00;;;;5010022;28;20630;-84
2023/07/08 11:26:49;;;;;;;4.80;3.78;;;;;36.60;101524.00;;;;5007054;28;20697;-84
2023/07/08 11:29:20;;;;;;;5.70;3.80;;;;;36.60;101522.00;;;;4990999;28;20208;-87
2023/07/08 11:31:49;;;;;;;6.85;4.40;;;;;36.70;101521.00;;;;4992803;28;20201;-84
2023/07/08 11:34:28;;;;;;;5.15;3.75;;;;;36.80;101520.00;;;;5122193;27;21173;-84
2023/07/08 11:36:58;;;;;;;4.40;3.72;;;;;36.90;101522.00;;;;5101868;28;20197;-84
2023/07/08 11:39:34;;;;;;;5.20;3.75;;;;;36.90;101524.00;;;;5105442;28;20205;-87
2023/07/08 11:42:12;;;;;;;5.32;4.18;;;;;37.00;101523.00;;;;5104280;28;20216;-83
2023/07/08 11:44:47;;;;;;;4.30;3.75;;;;;37.00;101528.00;;;;5085764;28;20193;-84
2023/07/08 11:47:19;;;;;;;5.55;4.10;;;;;37.10;101528.00;;;;5102288;28;20210;-83
2023/07/08 11:49:50;;;;;;;4.57;3.70;;;;;37.10;101520.00;;;;5103460;28;20198;-84
2023/07/08 11:52:20;;;;;;;5.72;4.32;;;;;37.20;101528.00;;;;5104424;28;20225;-83
2023/07/08 11:54:49;;;;;;;5.00;3.90;;;;;37.30;101523.00;;;;5097269;28;20672;-84
2023/07/08 11:57:25;;;;;;;4.03;3.30;;;;;37.30;101518.00;;;;5101462;28;20201;-83
2023/07/08 12:00:18;;;;;;;6.63;4.75;;;;;37.30;101521.00;;;;5102975;28;20185;-84
2023/07/08 12:02:52;;;;;;;4.72;3.97;;;;;37.40;101523.00;;;;5103264;28;20197;-88
2023/07/08 12:05:31;;;;;;;4.70;3.85;;;;;37.40;101516.00;;;;5102512;28;20197;-85
2023/07/08 12:08:00;;;;;;;5.90;4.20;;;;;37.60;101514.00;;;;5106519;28;20219;-84
2023/07/08 12:10:33;;;;;;;5.43;4.07;;;;;37.60;101513.00;;;;5105710;28;20776;-85
2023/07/08 12:13:00;;;;;;;7.25;4.30;;;;;37.70;101510.00;;;;5098975;28;20679;-83
2023/07/08 12:15:30;;;;;;;5.57;4.15;;;;;37.70;101510.00;;;;5099892;28;20228;-83
2023/07/08 12:18:00;;;;;;;6.57;4.35;;;;;37.70;101509.00;;;;5101264;28;20202;-83
2023/07/08 12:20:31;;;;;;;5.88;4.50;;;;;37.80;101508.00;;;;5095267;28;20206;-85
2023/07/08 12:22:58;;;;;;;5.10;3.53;;;;;37.80;101508.00;;;;5094287;28;20205;-84